Celia — V2DD5 — position and weather

sailwx.info

Track history (hours):
 
Tides and Currents Weather Stations Pressure Air Temp Water Temp Dewpoint Dewpoint Depression Visibility Wind Speed Wind Dir Waves Ship Positions

Celia

Last reported at 2017-Nov-19 11:04 UTC. Time now 2017-Dec-17 23:28 UTC.
Position N 30°57' W 081°04'.
Warning: this ship's position is 28 days out of date.

Length 101 m; draft 5.7 m.

Type: Cargo ship. MMSI: 305176000.

Date/timePositionNaut miles runAvg speedWind from/ knotsBaromVisibWave heightAir tempDewpointWater temp
2017-Nov-19 11:04N 30°57' W 081°04'1 9.6
2017-Nov-19 10:56N 30°58' W 081°06'4 9.6
2017-Nov-19 10:30N 30°59' W 081°10'5 9.6
2017-Nov-19 10:00N 31°02' W 081°15'4 7.9
2017-Nov-19 09:29N 31°05' W 081°18'4 8.9
2017-Nov-19 09:00N 31°07' W 081°22'4 8.3
2017-Nov-19 08:30N 31°06' W 081°27'3 5.0
2017-Nov-19 07:57N 31°08' W 081°30'0 0.0
2017-Nov-19 07:03N 31°08' W 081°30'0 0.1
2017-Nov-19 06:57N 31°08' W 081°30'0 0.0
2017-Nov-19 06:27N 31°08' W 081°30'0 0.0
2017-Nov-19 05:45N 31°08' W 081°30'0 0.0
2017-Nov-19 05:30N 31°08' W 081°30'0 0.0
2017-Nov-19 04:57N 31°08' W 081°30'0 0.0
2017-Nov-19 04:15N 31°08' W 081°30'0 0.0
2017-Nov-19 03:57N 31°08' W 081°30'0 0.0
2017-Nov-19 03:15N 31°08' W 081°30'0 0.0
2017-Nov-19 02:57N 31°08' W 081°30'0 0.0
2017-Nov-19 02:27N 31°08' W 081°30'0 0.0
2017-Nov-19 01:57N 31°08' W 081°30'0 0.0
2017-Nov-19 01:27N 31°08' W 081°30'0 0.0
2017-Nov-19 00:57N 31°08' W 081°30'0 0.0
2017-Nov-19 00:30N 31°08' W 081°30'0 0.0
2017-Nov-19 00:00N 31°08' W 081°30'0 0.0
2017-Nov-18 23:30N 31°08' W 081°30'0 0.0
2017-Nov-18 23:00N 31°08' W 081°30'0 0.0
2017-Nov-18 22:30N 31°08' W 081°30'0 0.0
2017-Nov-18 22:00N 31°08' W 081°30'0 0.0
2017-Nov-18 21:30N 31°08' W 081°30'0 0.0
2017-Nov-18 21:00N 31°08' W 081°30'0 0.0
2017-Nov-18 20:30N 31°08' W 081°30'0 0.0
2017-Nov-18 20:00N 31°08' W 081°30'0 0.0
2017-Nov-18 19:27N 31°08' W 081°30'0 0.0
2017-Nov-18 18:45N 31°08' W 081°30'0 0.0
2017-Nov-18 18:27N 31°08' W 081°30'0 0.0
2017-Nov-18 17:57N 31°08' W 081°30'0 0.0
2017-Nov-18 17:30N 31°08' W 081°30'0 0.0
2017-Nov-18 16:57N 31°08' W 081°30'0 0.0
2017-Nov-18 15:12N 31°08' W 081°30'0 0.0
2017-Nov-18 15:00N 31°08' W 081°30'0 0.0
2017-Nov-18 14:30N 31°08' W 081°30'0 0.0
2017-Nov-18 14:00N 31°08' W 081°30'0 0.0
2017-Nov-18 13:30N 31°08' W 081°30'0 0.0
2017-Nov-18 13:00N 31°08' W 081°30'0 0.0
2017-Nov-18 12:30N 31°08' W 081°30'0 0.0
2017-Nov-18 12:00N 31°08' W 081°30'0 0.0
2017-Nov-18 11:30N 31°08' W 081°30'0 0.0
2017-Nov-18 11:00N 31°08' W 081°30'0 0.0
2017-Nov-18 10:30N 31°08' W 081°30'0 0.0
2017-Nov-18 10:00N 31°08' W 081°30'0 0.0
2017-Nov-18 09:24N 31°08' W 081°30'0 0.0
2017-Nov-18 08:57N 31°08' W 081°30'0 0.0
2017-Nov-18 08:30N 31°08' W 081°30'0 0.0
2017-Nov-18 07:45N 31°08' W 081°30'0 0.0
2017-Nov-18 07:27N 31°08' W 081°30'0 0.0
2017-Nov-18 06:57N 31°08' W 081°30'0 0.0
2017-Nov-18 06:27N 31°08' W 081°30'0 0.0
2017-Nov-18 05:57N 31°08' W 081°30'0 0.0
2017-Nov-18 05:27N 31°08' W 081°30'0 0.0
2017-Nov-18 04:57N 31°08' W 081°30'0 0.0
2017-Nov-18 04:27N 31°08' W 081°30'0 0.0
2017-Nov-18 03:57N 31°08' W 081°30'0 0.0
2017-Nov-18 03:27N 31°08' W 081°30'0 0.0
2017-Nov-18 02:57N 31°08' W 081°30'0 0.0
2017-Nov-18 02:27N 31°08' W 081°30'0 0.0
2017-Nov-18 01:57N 31°08' W 081°30'0 0.0
2017-Nov-18 01:27N 31°08' W 081°30'0 0.0
2017-Nov-18 00:57N 31°08' W 081°30'0 0.0
2017-Nov-18 00:27N 31°08' W 081°30'0 0.0
2017-Nov-17 23:57N 31°08' W 081°30'0 0.0
2017-Nov-17 23:27N 31°08' W 081°30'0 0.0
2017-Nov-17 22:57N 31°08' W 081°30'0 0.3
2017-Nov-17 22:30N 31°08' W 081°30'2 3.5
2017-Nov-17 21:59N 31°07' W 081°28'1610.0
2017-Nov-17 20:24N 31°00' W 081°11'3 7.6
2017-Nov-17 20:00N 30°59' W 081°08'2 3.6
2017-Nov-17 19:31N 30°59' W 081°10'2 4.6
2017-Nov-17 19:00N 31°01' W 081°12'3 5.0
2017-Nov-17 18:30N 31°02' W 081°09'4 7.2
2017-Nov-17 18:00N 31°03' W 081°05'5 7.9
2017-Nov-17 17:25N 31°03' W 080°59'4 9.0
2017-Nov-17 16:59N 31°04' W 080°55'5 9.5
2017-Nov-17 16:28N 31°05' W 080°49'23610.8
2017-Nov-16 18:35N 34°11' W 077°57'1 0.3
2017-Nov-16 15:55N 34°12' W 077°57'0 0.0
2017-Nov-16 15:25N 34°12' W 077°57'0 0.0
2017-Nov-16 14:55N 34°12' W 077°57'0 0.0
2017-Nov-16 14:24N 34°12' W 077°57'0 0.0
2017-Nov-16 14:00N 34°12' W 077°57'0 0.0
2017-Nov-16 13:30N 34°12' W 077°57'0 0.0
2017-Nov-16 13:00N 34°12' W 077°57'0 0.0
2017-Nov-16 12:24N 34°12' W 077°57'0 0.0
2017-Nov-16 11:42N 34°12' W 077°57'0 0.0
2017-Nov-16 11:30N 34°12' W 077°57'0 0.0
2017-Nov-16 11:00N 34°12' W 077°57'0 0.0
2017-Nov-16 10:30N 34°12' W 077°57'0 0.0
2017-Nov-16 10:00N 34°12' W 077°57'0 0.0
2017-Nov-16 09:30N 34°12' W 077°57'0 0.0
2017-Nov-16 09:00N 34°12' W 077°57'0 0.0
2017-Nov-16 08:30N 34°12' W 077°57'0 0.0
2017-Nov-16 08:00N 34°12' W 077°57'0 0.0
2017-Nov-16 07:30N 34°12' W 077°57'0 0.0
2017-Nov-16 07:00N 34°12' W 077°57'0 0.0
2017-Nov-16 06:30N 34°12' W 077°57'0 0.0
2017-Nov-16 06:00N 34°12' W 077°57'0 0.0
2017-Nov-16 05:30N 34°12' W 077°57'0 0.0
2017-Nov-16 05:00N 34°12' W 077°57'0 0.0
2017-Nov-16 04:30N 34°12' W 077°57'0 0.0
2017-Nov-16 04:00N 34°12' W 077°57'0 0.0
2017-Nov-16 03:24N 34°12' W 077°57'0 0.0
2017-Nov-16 03:00N 34°12' W 077°57'0 0.0
2017-Nov-16 02:30N 34°12' W 077°57'0 0.0
2017-Nov-16 02:00N 34°12' W 077°57'0 0.0
2017-Nov-16 01:24N 34°12' W 077°57'0 0.0
2017-Nov-16 01:00N 34°12' W 077°57'0 0.0
2017-Nov-16 00:30N 34°12' W 077°57'0 0.0
2017-Nov-16 00:00N 34°12' W 077°57'0 0.0
2017-Nov-15 23:30N 34°12' W 077°57'0 0.0
2017-Nov-15 23:00N 34°12' W 077°57'0 0.0
2017-Nov-15 21:18N 34°12' W 077°57'0 0.0
2017-Nov-15 20:06N 34°12' W 077°57'0 0.0
2017-Nov-15 19:42N 34°12' W 077°57'0 0.0
2017-Nov-15 19:30N 34°12' W 077°57'0 0.0
2017-Nov-15 18:36N 34°12' W 077°57'0 0.1
2017-Nov-15 18:30N 34°12' W 077°57'0 0.0
2017-Nov-15 18:00N 34°12' W 077°57'0 0.0
2017-Nov-15 12:24N 34°12' W 077°57'0 1.1
2017-Nov-15 11:59N 34°12' W 077°57'  
Track history (hours):
 
Tides and Currents Weather Stations Pressure Air Temp Water Temp Dewpoint Dewpoint Depression Visibility Wind Speed Wind Dir Waves Ship Positions

Celia

Last reported at 2017-Nov-19 11:04 UTC. Time now 2017-Dec-17 23:28 UTC.
Position N 30°57' W 081°04'.
Warning: this ship's position is 28 days out of date.

Length 101 m; draft 5.7 m.

Type: Cargo ship. MMSI: 305176000.

Date/timePositionNaut miles runAvg speedWind from/ knotsBaromVisibWave heightAir tempDewpointWater temp
2017-Nov-19 11:04N 30°57' W 081°04'1 9.6
2017-Nov-19 10:56N 30°58' W 081°06'4 9.6
2017-Nov-19 10:30N 30°59' W 081°10'5 9.6
2017-Nov-19 10:00N 31°02' W 081°15'4 7.9
2017-Nov-19 09:29N 31°05' W 081°18'4 8.9
2017-Nov-19 09:00N 31°07' W 081°22'4 8.3
2017-Nov-19 08:30N 31°06' W 081°27'3 5.0
2017-Nov-19 07:57N 31°08' W 081°30'0 0.0
2017-Nov-19 07:03N 31°08' W 081°30'0 0.1
2017-Nov-19 06:57N 31°08' W 081°30'0 0.0
2017-Nov-19 06:27N 31°08' W 081°30'0 0.0
2017-Nov-19 05:45N 31°08' W 081°30'0 0.0
2017-Nov-19 05:30N 31°08' W 081°30'0 0.0
2017-Nov-19 04:57N 31°08' W 081°30'0 0.0
2017-Nov-19 04:15N 31°08' W 081°30'0 0.0
2017-Nov-19 03:57N 31°08' W 081°30'0 0.0
2017-Nov-19 03:15N 31°08' W 081°30'0 0.0
2017-Nov-19 02:57N 31°08' W 081°30'0 0.0
2017-Nov-19 02:27N 31°08' W 081°30'0 0.0
2017-Nov-19 01:57N 31°08' W 081°30'0 0.0
2017-Nov-19 01:27N 31°08' W 081°30'0 0.0
2017-Nov-19 00:57N 31°08' W 081°30'0 0.0
2017-Nov-19 00:30N 31°08' W 081°30'0 0.0
2017-Nov-19 00:00N 31°08' W 081°30'0 0.0
2017-Nov-18 23:30N 31°08' W 081°30'0 0.0
2017-Nov-18 23:00N 31°08' W 081°30'0 0.0
2017-Nov-18 22:30N 31°08' W 081°30'0 0.0
2017-Nov-18 22:00N 31°08' W 081°30'0 0.0
2017-Nov-18 21:30N 31°08' W 081°30'0 0.0
2017-Nov-18 21:00N 31°08' W 081°30'0 0.0
2017-Nov-18 20:30N 31°08' W 081°30'0 0.0
2017-Nov-18 20:00N 31°08' W 081°30'0 0.0
2017-Nov-18 19:27N 31°08' W 081°30'0 0.0
2017-Nov-18 18:45N 31°08' W 081°30'0 0.0
2017-Nov-18 18:27N 31°08' W 081°30'0 0.0
2017-Nov-18 17:57N 31°08' W 081°30'0 0.0
2017-Nov-18 17:30N 31°08' W 081°30'0 0.0
2017-Nov-18 16:57N 31°08' W 081°30'0 0.0
2017-Nov-18 15:12N 31°08' W 081°30'0 0.0
2017-Nov-18 15:00N 31°08' W 081°30'0 0.0
2017-Nov-18 14:30N 31°08' W 081°30'0 0.0
2017-Nov-18 14:00N 31°08' W 081°30'0 0.0
2017-Nov-18 13:30N 31°08' W 081°30'0 0.0
2017-Nov-18 13:00N 31°08' W 081°30'0 0.0
2017-Nov-18 12:30N 31°08' W 081°30'0 0.0
2017-Nov-18 12:00N 31°08' W 081°30'0 0.0
2017-Nov-18 11:30N 31°08' W 081°30'0 0.0
2017-Nov-18 11:00N 31°08' W 081°30'0 0.0
2017-Nov-18 10:30N 31°08' W 081°30'0 0.0
2017-Nov-18 10:00N 31°08' W 081°30'0 0.0
2017-Nov-18 09:24N 31°08' W 081°30'0 0.0
2017-Nov-18 08:57N 31°08' W 081°30'0 0.0
2017-Nov-18 08:30N 31°08' W 081°30'0 0.0
2017-Nov-18 07:45N 31°08' W 081°30'0 0.0
2017-Nov-18 07:27N 31°08' W 081°30'0 0.0
2017-Nov-18 06:57N 31°08' W 081°30'0 0.0
2017-Nov-18 06:27N 31°08' W 081°30'0 0.0
2017-Nov-18 05:57N 31°08' W 081°30'0 0.0
2017-Nov-18 05:27N 31°08' W 081°30'0 0.0
2017-Nov-18 04:57N 31°08' W 081°30'0 0.0
2017-Nov-18 04:27N 31°08' W 081°30'0 0.0
2017-Nov-18 03:57N 31°08' W 081°30'0 0.0
2017-Nov-18 03:27N 31°08' W 081°30'0 0.0
2017-Nov-18 02:57N 31°08' W 081°30'0 0.0
2017-Nov-18 02:27N 31°08' W 081°30'0 0.0
2017-Nov-18 01:57N 31°08' W 081°30'0 0.0
2017-Nov-18 01:27N 31°08' W 081°30'0 0.0
2017-Nov-18 00:57N 31°08' W 081°30'0 0.0
2017-Nov-18 00:27N 31°08' W 081°30'0 0.0
2017-Nov-17 23:57N 31°08' W 081°30'0 0.0
2017-Nov-17 23:27N 31°08' W 081°30'0 0.0
2017-Nov-17 22:57N 31°08' W 081°30'0 0.3
2017-Nov-17 22:30N 31°08' W 081°30'2 3.5
2017-Nov-17 21:59N 31°07' W 081°28'1610.0
2017-Nov-17 20:24N 31°00' W 081°11'3 7.6
2017-Nov-17 20:00N 30°59' W 081°08'2 3.6
2017-Nov-17 19:31N 30°59' W 081°10'2 4.6
2017-Nov-17 19:00N 31°01' W 081°12'3 5.0
2017-Nov-17 18:30N 31°02' W 081°09'4 7.2
2017-Nov-17 18:00N 31°03' W 081°05'5 7.9
2017-Nov-17 17:25N 31°03' W 080°59'4 9.0
2017-Nov-17 16:59N 31°04' W 080°55'5 9.5
2017-Nov-17 16:28N 31°05' W 080°49'23610.8
2017-Nov-16 18:35N 34°11' W 077°57'1 0.3
2017-Nov-16 15:55N 34°12' W 077°57'0 0.0
2017-Nov-16 15:25N 34°12' W 077°57'0 0.0
2017-Nov-16 14:55N 34°12' W 077°57'0 0.0
2017-Nov-16 14:24N 34°12' W 077°57'0 0.0
2017-Nov-16 14:00N 34°12' W 077°57'0 0.0
2017-Nov-16 13:30N 34°12' W 077°57'0 0.0
2017-Nov-16 13:00N 34°12' W 077°57'0 0.0
2017-Nov-16 12:24N 34°12' W 077°57'0 0.0
2017-Nov-16 11:42N 34°12' W 077°57'0 0.0
2017-Nov-16 11:30N 34°12' W 077°57'0 0.0
2017-Nov-16 11:00N 34°12' W 077°57'0 0.0
2017-Nov-16 10:30N 34°12' W 077°57'0 0.0
2017-Nov-16 10:00N 34°12' W 077°57'0 0.0
2017-Nov-16 09:30N 34°12' W 077°57'0 0.0
2017-Nov-16 09:00N 34°12' W 077°57'0 0.0
2017-Nov-16 08:30N 34°12' W 077°57'0 0.0
2017-Nov-16 08:00N 34°12' W 077°57'0 0.0
2017-Nov-16 07:30N 34°12' W 077°57'0 0.0
2017-Nov-16 07:00N 34°12' W 077°57'0 0.0
2017-Nov-16 06:30N 34°12' W 077°57'0 0.0
2017-Nov-16 06:00N 34°12' W 077°57'0 0.0
2017-Nov-16 05:30N 34°12' W 077°57'0 0.0
2017-Nov-16 05:00N 34°12' W 077°57'0 0.0
2017-Nov-16 04:30N 34°12' W 077°57'0 0.0
2017-Nov-16 04:00N 34°12' W 077°57'0 0.0
2017-Nov-16 03:24N 34°12' W 077°57'0 0.0
2017-Nov-16 03:00N 34°12' W 077°57'0 0.0
2017-Nov-16 02:30N 34°12' W 077°57'0 0.0
2017-Nov-16 02:00N 34°12' W 077°57'0 0.0
2017-Nov-16 01:24N 34°12' W 077°57'0 0.0
2017-Nov-16 01:00N 34°12' W 077°57'0 0.0
2017-Nov-16 00:30N 34°12' W 077°57'0 0.0
2017-Nov-16 00:00N 34°12' W 077°57'0 0.0
2017-Nov-15 23:30N 34°12' W 077°57'0 0.0
2017-Nov-15 23:00N 34°12' W 077°57'0 0.0
2017-Nov-15 21:18N 34°12' W 077°57'0 0.0
2017-Nov-15 20:06N 34°12' W 077°57'0 0.0
2017-Nov-15 19:42N 34°12' W 077°57'0 0.0
2017-Nov-15 19:30N 34°12' W 077°57'0 0.0
2017-Nov-15 18:36N 34°12' W 077°57'0 0.1
2017-Nov-15 18:30N 34°12' W 077°57'0 0.0
2017-Nov-15 18:00N 34°12' W 077°57'0 0.0
2017-Nov-15 12:24N 34°12' W 077°57'0 1.1
2017-Nov-15 11:59N 34°12' W 077°57'  

Dump ship's entire track history